sensor_id;sensor_type;location;lat;lon;timestamp;P1;durP1;ratioP1;P2;durP2;ratioP2
10347;SDS011;5220;43.192;23.284;2023-08-24T00:01:51;8.98;;;8.20;;
10347;SDS011;5220;43.192;23.284;2023-08-24T00:04:17;13.20;;;9.77;;
10347;SDS011;5220;43.192;23.284;2023-08-24T00:06:44;9.75;;;8.75;;
10347;SDS011;5220;43.192;23.284;2023-08-24T00:09:11;11.25;;;9.05;;
10347;SDS011;5220;43.192;23.284;2023-08-24T00:11:38;9.90;;;9.00;;
10347;SDS011;5220;43.192;23.284;2023-08-24T00:14:06;10.75;;;9.63;;
10347;SDS011;5220;43.192;23.284;2023-08-24T00:16:33;10.27;;;9.27;;
10347;SDS011;5220;43.192;23.284;2023-08-24T00:18:59;10.63;;;9.63;;
10347;SDS011;5220;43.192;23.284;2023-08-24T00:21:26;10.50;;;9.60;;
10347;SDS011;5220;43.192;23.284;2023-08-24T00:23:53;10.40;;;9.50;;
10347;SDS011;5220;43.192;23.284;2023-08-24T00:26:20;10.55;;;9.48;;
10347;SDS011;5220;43.192;23.284;2023-08-24T00:28:48;10.77;;;9.70;;
10347;SDS011;5220;43.192;23.284;2023-08-24T00:31:16;10.23;;;9.27;;
10347;SDS011;5220;43.192;23.284;2023-08-24T00:33:43;10.57;;;9.48;;
10347;SDS011;5220;43.192;23.284;2023-08-24T00:36:10;11.98;;;9.25;;
10347;SDS011;5220;43.192;23.284;2023-08-24T00:38:37;11.18;;;9.48;;
10347;SDS011;5220;43.192;23.284;2023-08-24T00:41:04;14.00;;;9.80;;
10347;SDS011;5220;43.192;23.284;2023-08-24T00:43:30;10.82;;;9.85;;
10347;SDS011;5220;43.192;23.284;2023-08-24T00:45:59;11.60;;;10.40;;
10347;SDS011;5220;43.192;23.284;2023-08-24T00:48:28;10.35;;;9.40;;
10347;SDS011;5220;43.192;23.284;2023-08-24T00:50:55;12.70;;;9.13;;
10347;SDS011;5220;43.192;23.284;2023-08-24T00:53:22;11.02;;;10.00;;
10347;SDS011;5220;43.192;23.284;2023-08-24T00:55:51;11.93;;;10.75;;
10347;SDS011;5220;43.192;23.284;2023-08-24T00:58:18;12.38;;;11.02;;
10347;SDS011;5220;43.192;23.284;2023-08-24T01:00:45;12.35;;;11.25;;
10347;SDS011;5220;43.192;23.284;2023-08-24T01:03:12;11.98;;;10.75;;
10347;SDS011;5220;43.192;23.284;2023-08-24T01:05:40;12.63;;;11.32;;
10347;SDS011;5220;43.192;23.284;2023-08-24T01:08:08;12.23;;;11.23;;
10347;SDS011;5220;43.192;23.284;2023-08-24T01:10:36;13.80;;;12.15;;
10347;SDS011;5220;43.192;23.284;2023-08-24T01:13:07;12.65;;;11.55;;
10347;SDS011;5220;43.192;23.284;2023-08-24T01:15:37;11.88;;;10.70;;
10347;SDS011;5220;43.192;23.284;2023-08-24T01:18:11;12.70;;;11.40;;
10347;SDS011;5220;43.192;23.284;2023-08-24T01:20:41;13.25;;;11.27;;
10347;SDS011;5220;43.192;23.284;2023-08-24T01:23:14;13.82;;;11.52;;
10347;SDS011;5220;43.192;23.284;2023-08-24T01:25:51;11.95;;;10.90;;
10347;SDS011;5220;43.192;23.284;2023-08-24T01:28:20;12.35;;;11.20;;
10347;SDS011;5220;43.192;23.284;2023-08-24T01:30:48;13.13;;;11.93;;
10347;SDS011;5220;43.192;23.284;2023-08-24T01:33:15;13.00;;;11.57;;
10347;SDS011;5220;43.192;23.284;2023-08-24T01:35:42;12.48;;;11.38;;
10347;SDS011;5220;43.192;23.284;2023-08-24T01:38:09;12.77;;;11.48;;
10347;SDS011;5220;43.192;23.284;2023-08-24T01:40:39;12.88;;;11.63;;
10347;SDS011;5220;43.192;23.284;2023-08-24T01:43:18;13.57;;;12.00;;
10347;SDS011;5220;43.192;23.284;2023-08-24T01:45:51;13.10;;;11.85;;
10347;SDS011;5220;43.192;23.284;2023-08-24T01:48:19;13.70;;;12.35;;
10347;SDS011;5220;43.192;23.284;2023-08-24T01:50:47;13.68;;;11.85;;
10347;SDS011;5220;43.192;23.284;2023-08-24T01:53:15;17.60;;;11.90;;
10347;SDS011;5220;43.192;23.284;2023-08-24T01:55:44;13.57;;;12.23;;
10347;SDS011;5220;43.192;23.284;2023-08-24T01:58:11;13.88;;;11.80;;
10347;SDS011;5220;43.192;23.284;2023-08-24T02:00:39;12.98;;;11.77;;
10347;SDS011;5220;43.192;23.284;2023-08-24T02:03:06;13.80;;;12.35;;
10347;SDS011;5220;43.192;23.284;2023-08-24T02:05:33;14.15;;;12.60;;
10347;SDS011;5220;43.192;23.284;2023-08-24T02:07:59;13.00;;;11.68;;
10347;SDS011;5220;43.192;23.284;2023-08-24T02:10:26;13.43;;;12.23;;
10347;SDS011;5220;43.192;23.284;2023-08-24T02:12:53;13.88;;;12.48;;
10347;SDS011;5220;43.192;23.284;2023-08-24T02:15:19;14.02;;;11.95;;
10347;SDS011;5220;43.192;23.284;2023-08-24T02:17:48;13.45;;;12.05;;
10347;SDS011;5220;43.192;23.284;2023-08-24T02:20:15;13.68;;;12.27;;
10347;SDS011;5220;43.192;23.284;2023-08-24T02:22:42;14.88;;;13.02;;
10347;SDS011;5220;43.192;23.284;2023-08-24T02:25:09;13.57;;;12.32;;
10347;SDS011;5220;43.192;23.284;2023-08-24T02:27:36;14.05;;;12.75;;
10347;SDS011;5220;43.192;23.284;2023-08-24T02:30:03;13.52;;;12.23;;
10347;SDS011;5220;43.192;23.284;2023-08-24T02:32:31;13.70;;;12.48;;
10347;SDS011;5220;43.192;23.284;2023-08-24T02:35:00;13.77;;;12.45;;
10347;SDS011;5220;43.192;23.284;2023-08-24T02:37:26;15.27;;;12.45;;
10347;SDS011;5220;43.192;23.284;2023-08-24T02:39:53;13.68;;;12.30;;
10347;SDS011;5220;43.192;23.284;2023-08-24T02:42:20;12.95;;;11.85;;
10347;SDS011;5220;43.192;23.284;2023-08-24T02:44:47;13.05;;;11.95;;
10347;SDS011;5220;43.192;23.284;2023-08-24T02:47:13;14.05;;;12.75;;
10347;SDS011;5220;43.192;23.284;2023-08-24T02:49:40;13.77;;;12.60;;
10347;SDS011;5220;43.192;23.284;2023-08-24T02:52:09;12.93;;;11.75;;
10347;SDS011;5220;43.192;23.284;2023-08-24T02:54:35;14.50;;;13.10;;
10347;SDS011;5220;43.192;23.284;2023-08-24T02:57:02;14.68;;;12.65;;
10347;SDS011;5220;43.192;23.284;2023-08-24T02:59:29;13.52;;;12.32;;
10347;SDS011;5220;43.192;23.284;2023-08-24T03:01:55;15.38;;;12.82;;
10347;SDS011;5220;43.192;23.284;2023-08-24T03:04:22;13.07;;;11.98;;
10347;SDS011;5220;43.192;23.284;2023-08-24T03:06:49;14.00;;;12.55;;
10347;SDS011;5220;43.192;23.284;2023-08-24T03:09:17;13.80;;;12.60;;
10347;SDS011;5220;43.192;23.284;2023-08-24T03:11:44;13.23;;;12.13;;
10347;SDS011;5220;43.192;23.284;2023-08-24T03:14:10;13.50;;;12.32;;
10347;SDS011;5220;43.192;23.284;2023-08-24T03:16:37;13.60;;;12.25;;
10347;SDS011;5220;43.192;23.284;2023-08-24T03:19:04;12.50;;;11.20;;
10347;SDS011;5220;43.192;23.284;2023-08-24T03:21:31;13.30;;;12.20;;
10347;SDS011;5220;43.192;23.284;2023-08-24T03:23:57;17.27;;;12.60;;
10347;SDS011;5220;43.192;23.284;2023-08-24T03:26:26;15.05;;;12.38;;
10347;SDS011;5220;43.192;23.284;2023-08-24T03:28:52;14.00;;;12.57;;
10347;SDS011;5220;43.192;23.284;2023-08-24T03:31:19;13.45;;;11.85;;
10347;SDS011;5220;43.192;23.284;2023-08-24T03:33:45;13.10;;;11.88;;
10347;SDS011;5220;43.192;23.284;2023-08-24T03:36:12;13.85;;;12.52;;
10347;SDS011;5220;43.192;23.284;2023-08-24T03:38:39;14.38;;;12.95;;
10347;SDS011;5220;43.192;23.284;2023-08-24T03:41:06;14.05;;;12.65;;
10347;SDS011;5220;43.192;23.284;2023-08-24T03:43:34;13.25;;;11.82;;
10347;SDS011;5220;43.192;23.284;2023-08-24T03:46:02;14.63;;;13.20;;
10347;SDS011;5220;43.192;23.284;2023-08-24T03:48:30;14.27;;;12.85;;
10347;SDS011;5220;43.192;23.284;2023-08-24T03:50:57;12.60;;;11.32;;
10347;SDS011;5220;43.192;23.284;2023-08-24T03:53:25;13.45;;;12.00;;
10347;SDS011;5220;43.192;23.284;2023-08-24T03:55:52;13.02;;;11.93;;
10347;SDS011;5220;43.192;23.284;2023-08-24T03:58:19;14.43;;;12.90;;
10347;SDS011;5220;43.192;23.284;2023-08-24T04:00:47;13.82;;;12.65;;
10347;SDS011;5220;43.192;23.284;2023-08-24T04:03:14;15.00;;;11.95;;
10347;SDS011;5220;43.192;23.284;2023-08-24T04:05:40;13.45;;;12.35;;
10347;SDS011;5220;43.192;23.284;2023-08-24T04:08:07;13.93;;;12.55;;
10347;SDS011;5220;43.192;23.284;2023-08-24T04:10:34;15.02;;;12.35;;
10347;SDS011;5220;43.192;23.284;2023-08-24T04:13:01;14.65;;;12.50;;
10347;SDS011;5220;43.192;23.284;2023-08-24T04:15:27;14.32;;;12.07;;
10347;SDS011;5220;43.192;23.284;2023-08-24T04:17:56;14.45;;;13.05;;
10347;SDS011;5220;43.192;23.284;2023-08-24T04:20:23;15.85;;;13.30;;
10347;SDS011;5220;43.192;23.284;2023-08-24T04:22:49;13.70;;;12.50;;
10347;SDS011;5220;43.192;23.284;2023-08-24T04:25:16;15.32;;;12.55;;
10347;SDS011;5220;43.192;23.284;2023-08-24T04:27:43;13.50;;;12.25;;
10347;SDS011;5220;43.192;23.284;2023-08-24T04:30:10;14.23;;;12.85;;
10347;SDS011;5220;43.192;23.284;2023-08-24T04:32:39;14.65;;;13.15;;
10347;SDS011;5220;43.192;23.284;2023-08-24T04:35:07;13.90;;;12.63;;
10347;SDS011;5220;43.192;23.284;2023-08-24T04:37:35;13.38;;;12.20;;
10347;SDS011;5220;43.192;23.284;2023-08-24T04:40:02;13.88;;;12.70;;
10347;SDS011;5220;43.192;23.284;2023-08-24T04:42:30;14.07;;;12.77;;
10347;SDS011;5220;43.192;23.284;2023-08-24T04:44:56;13.50;;;12.25;;
10347;SDS011;5220;43.192;23.284;2023-08-24T04:47:23;13.45;;;12.15;;
10347;SDS011;5220;43.192;23.284;2023-08-24T04:49:50;17.52;;;12.82;;
10347;SDS011;5220;43.192;23.284;2023-08-24T04:52:18;14.50;;;13.10;;
10347;SDS011;5220;43.192;23.284;2023-08-24T04:54:44;13.68;;;12.43;;
10347;SDS011;5220;43.192;23.284;2023-08-24T04:57:11;13.50;;;12.25;;
10347;SDS011;5220;43.192;23.284;2023-08-24T04:59:38;14.48;;;13.07;;
10347;SDS011;5220;43.192;23.284;2023-08-24T05:02:04;16.50;;;12.40;;
10347;SDS011;5220;43.192;23.284;2023-08-24T05:04:31;13.55;;;12.38;;
10347;SDS011;5220;43.192;23.284;2023-08-24T05:06:58;14.55;;;12.93;;
10347;SDS011;5220;43.192;23.284;2023-08-24T05:09:26;13.75;;;12.55;;
10347;SDS011;5220;43.192;23.284;2023-08-24T05:11:53;25.10;;;15.52;;
10347;SDS011;5220;43.192;23.284;2023-08-24T05:14:19;18.10;;;14.07;;
10347;SDS011;5220;43.192;23.284;2023-08-24T05:16:46;13.55;;;12.25;;
10347;SDS011;5220;43.192;23.284;2023-08-24T05:19:13;14.80;;;13.13;;
10347;SDS011;5220;43.192;23.284;2023-08-24T05:21:39;18.77;;;14.13;;
10347;SDS011;5220;43.192;23.284;2023-08-24T05:24:06;20.10;;;13.52;;
10347;SDS011;5220;43.192;23.284;2023-08-24T05:26:34;14.90;;;13.40;;
10347;SDS011;5220;43.192;23.284;2023-08-24T05:29:01;15.68;;;14.18;;
10347;SDS011;5220;43.192;23.284;2023-08-24T05:31:28;19.10;;;13.75;;
10347;SDS011;5220;43.192;23.284;2023-08-24T05:33:55;17.30;;;13.70;;
10347;SDS011;5220;43.192;23.284;2023-08-24T05:36:21;19.10;;;14.00;;
10347;SDS011;5220;43.192;23.284;2023-08-24T05:38:48;23.02;;;13.57;;
10347;SDS011;5220;43.192;23.284;2023-08-24T05:41:21;28.00;;;14.15;;
10347;SDS011;5220;43.192;23.284;2023-08-24T05:43:49;17.00;;;13.13;;
10347;SDS011;5220;43.192;23.284;2023-08-24T05:46:17;19.95;;;14.02;;
10347;SDS011;5220;43.192;23.284;2023-08-24T05:48:44;23.27;;;14.60;;
10347;SDS011;5220;43.192;23.284;2023-08-24T05:51:11;28.38;;;14.80;;
10347;SDS011;5220;43.192;23.284;2023-08-24T05:53:37;30.55;;;15.82;;
10347;SDS011;5220;43.192;23.284;2023-08-24T05:56:05;22.73;;;14.25;;
10347;SDS011;5220;43.192;23.284;2023-08-24T05:58:32;23.02;;;14.45;;
10347;SDS011;5220;43.192;23.284;2023-08-24T06:01:00;26.42;;;14.45;;
10347;SDS011;5220;43.192;23.284;2023-08-24T06:03:27;23.40;;;14.60;;
10347;SDS011;5220;43.192;23.284;2023-08-24T06:05:54;19.88;;;13.93;;
10347;SDS011;5220;43.192;23.284;2023-08-24T06:08:26;17.38;;;13.68;;
10347;SDS011;5220;43.192;23.284;2023-08-24T06:10:53;14.40;;;12.85;;
10347;SDS011;5220;43.192;23.284;2023-08-24T06:13:19;18.92;;;13.70;;
10347;SDS011;5220;43.192;23.284;2023-08-24T06:15:46;15.27;;;13.93;;
10347;SDS011;5220;43.192;23.284;2023-08-24T06:18:14;15.85;;;13.82;;
10347;SDS011;5220;43.192;23.284;2023-08-24T06:20:41;18.23;;;16.70;;
10347;SDS011;5220;43.192;23.284;2023-08-24T06:23:07;16.33;;;14.63;;
10347;SDS011;5220;43.192;23.284;2023-08-24T06:25:35;17.88;;;16.02;;
10347;SDS011;5220;43.192;23.284;2023-08-24T06:28:02;21.42;;;14.52;;
10347;SDS011;5220;43.192;23.284;2023-08-24T06:30:30;15.13;;;13.70;;
10347;SDS011;5220;43.192;23.284;2023-08-24T06:33:02;14.85;;;13.20;;
10347;SDS011;5220;43.192;23.284;2023-08-24T06:35:32;15.05;;;13.05;;
10347;SDS011;5220;43.192;23.284;2023-08-24T06:37:59;18.70;;;12.95;;
10347;SDS011;5220;43.192;23.284;2023-08-24T06:40:26;18.95;;;12.52;;
10347;SDS011;5220;43.192;23.284;2023-08-24T06:42:53;14.10;;;11.93;;
10347;SDS011;5220;43.192;23.284;2023-08-24T06:45:19;13.48;;;11.60;;
10347;SDS011;5220;43.192;23.284;2023-08-24T06:47:46;11.82;;;10.93;;
10347;SDS011;5220;43.192;23.284;2023-08-24T06:50:13;12.88;;;11.68;;
10347;SDS011;5220;43.192;23.284;2023-08-24T06:52:42;11.55;;;10.52;;
10347;SDS011;5220;43.192;23.284;2023-08-24T06:55:09;13.05;;;11.50;;
10347;SDS011;5220;43.192;23.284;2023-08-24T06:57:37;12.25;;;11.15;;
10347;SDS011;5220;43.192;23.284;2023-08-24T07:00:04;45.70;;;12.77;;
10347;SDS011;5220;43.192;23.284;2023-08-24T07:02:33;12.57;;;11.35;;
10347;SDS011;5220;43.192;23.284;2023-08-24T07:05:00;11.95;;;10.82;;
10347;SDS011;5220;43.192;23.284;2023-08-24T07:07:29;12.10;;;11.07;;
10347;SDS011;5220;43.192;23.284;2023-08-24T07:09:57;22.88;;;11.48;;
10347;SDS011;5220;43.192;23.284;2023-08-24T07:12:24;15.25;;;12.07;;
10347;SDS011;5220;43.192;23.284;2023-08-24T07:14:51;12.85;;;11.50;;
10347;SDS011;5220;43.192;23.284;2023-08-24T07:17:18;14.30;;;11.45;;
10347;SDS011;5220;43.192;23.284;2023-08-24T07:19:45;13.23;;;11.88;;
10347;SDS011;5220;43.192;23.284;2023-08-24T07:22:11;12.75;;;11.60;;
10347;SDS011;5220;43.192;23.284;2023-08-24T07:24:38;12.68;;;11.52;;
10347;SDS011;5220;43.192;23.284;2023-08-24T07:27:06;14.13;;;12.73;;
10347;SDS011;5220;43.192;23.284;2023-08-24T07:29:33;13.95;;;12.50;;
10347;SDS011;5220;43.192;23.284;2023-08-24T07:32:00;13.77;;;12.55;;
10347;SDS011;5220;43.192;23.284;2023-08-24T07:34:28;12.82;;;11.52;;
10347;SDS011;5220;43.192;23.284;2023-08-24T07:36:54;14.15;;;12.70;;
10347;SDS011;5220;43.192;23.284;2023-08-24T07:39:21;14.35;;;12.98;;
10347;SDS011;5220;43.192;23.284;2023-08-24T07:41:48;13.70;;;12.50;;
10347;SDS011;5220;43.192;23.284;2023-08-24T07:44:16;13.63;;;12.20;;
10347;SDS011;5220;43.192;23.284;2023-08-24T07:46:43;13.18;;;12.02;;
10347;SDS011;5220;43.192;23.284;2023-08-24T07:49:09;14.95;;;13.32;;
10347;SDS011;5220;43.192;23.284;2023-08-24T07:51:36;14.65;;;13.30;;
10347;SDS011;5220;43.192;23.284;2023-08-24T07:54:03;16.80;;;12.50;;
10347;SDS011;5220;43.192;23.284;2023-08-24T07:56:32;17.70;;;11.85;;
10347;SDS011;5220;43.192;23.284;2023-08-24T07:58:58;12.68;;;11.63;;
10347;SDS011;5220;43.192;23.284;2023-08-24T08:01:26;15.50;;;12.20;;
10347;SDS011;5220;43.192;23.284;2023-08-24T08:03:53;16.27;;;12.25;;
10347;SDS011;5220;43.192;23.284;2023-08-24T08:06:20;14.18;;;12.45;;
10347;SDS011;5220;43.192;23.284;2023-08-24T08:08:49;12.60;;;11.40;;
10347;SDS011;5220;43.192;23.284;2023-08-24T08:11:16;14.13;;;12.55;;
10347;SDS011;5220;43.192;23.284;2023-08-24T08:13:44;13.60;;;12.05;;
10347;SDS011;5220;43.192;23.284;2023-08-24T08:16:11;18.55;;;13.60;;
10347;SDS011;5220;43.192;23.284;2023-08-24T08:18:39;12.77;;;11.48;;
10347;SDS011;5220;43.192;23.284;2023-08-24T08:21:08;13.75;;;12.27;;
10347;SDS011;5220;43.192;23.284;2023-08-24T08:23:36;13.32;;;11.00;;
10347;SDS011;5220;43.192;23.284;2023-08-24T08:26:04;18.40;;;12.43;;
10347;SDS011;5220;43.192;23.284;2023-08-24T08:28:30;12.73;;;11.07;;
10347;SDS011;5220;43.192;23.284;2023-08-24T08:30:58;12.50;;;11.13;;
10347;SDS011;5220;43.192;23.284;2023-08-24T08:33:25;12.77;;;11.68;;
10347;SDS011;5220;43.192;23.284;2023-08-24T08:35:53;13.07;;;11.65;;
10347;SDS011;5220;43.192;23.284;2023-08-24T08:38:20;13.00;;;11.60;;
10347;SDS011;5220;43.192;23.284;2023-08-24T08:40:51;11.07;;;9.88;;
10347;SDS011;5220;43.192;23.284;2023-08-24T08:43:18;12.15;;;10.90;;
10347;SDS011;5220;43.192;23.284;2023-08-24T08:45:46;12.10;;;10.95;;
10347;SDS011;5220;43.192;23.284;2023-08-24T08:48:14;11.88;;;10.40;;
10347;SDS011;5220;43.192;23.284;2023-08-24T08:50:41;12.10;;;11.00;;
10347;SDS011;5220;43.192;23.284;2023-08-24T08:53:09;13.30;;;11.75;;
10347;SDS011;5220;43.192;23.284;2023-08-24T08:55:36;11.90;;;10.80;;
10347;SDS011;5220;43.192;23.284;2023-08-24T08:58:03;11.13;;;10.20;;
10347;SDS011;5220;43.192;23.284;2023-08-24T09:00:30;13.00;;;10.70;;
10347;SDS011;5220;43.192;23.284;2023-08-24T09:02:58;12.80;;;11.52;;
10347;SDS011;5220;43.192;23.284;2023-08-24T09:05:25;11.65;;;10.75;;
10347;SDS011;5220;43.192;23.284;2023-08-24T09:07:52;11.20;;;10.10;;
10347;SDS011;5220;43.192;23.284;2023-08-24T09:10:22;12.05;;;10.95;;
10347;SDS011;5220;43.192;23.284;2023-08-24T09:12:49;11.82;;;10.82;;
10347;SDS011;5220;43.192;23.284;2023-08-24T09:15:23;11.15;;;10.20;;
10347;SDS011;5220;43.192;23.284;2023-08-24T09:17:51;11.80;;;10.82;;
10347;SDS011;5220;43.192;23.284;2023-08-24T09:20:19;12.82;;;10.63;;
10347;SDS011;5220;43.192;23.284;2023-08-24T09:22:46;10.88;;;9.75;;
10347;SDS011;5220;43.192;23.284;2023-08-24T09:25:14;10.82;;;9.68;;
10347;SDS011;5220;43.192;23.284;2023-08-24T09:27:42;12.18;;;10.95;;
10347;SDS011;5220;43.192;23.284;2023-08-24T09:30:10;11.93;;;10.82;;
10347;SDS011;5220;43.192;23.284;2023-08-24T09:32:38;10.57;;;9.52;;
10347;SDS011;5220;43.192;23.284;2023-08-24T09:35:07;9.93;;;9.07;;
10347;SDS011;5220;43.192;23.284;2023-08-24T09:37:35;10.30;;;9.30;;
10347;SDS011;5220;43.192;23.284;2023-08-24T09:40:03;9.73;;;8.93;;
10347;SDS011;5220;43.192;23.284;2023-08-24T09:42:36;8.90;;;8.02;;
10347;SDS011;5220;43.192;23.284;2023-08-24T09:45:06;10.75;;;8.70;;
10347;SDS011;5220;43.192;23.284;2023-08-24T09:47:35;12.75;;;8.60;;
10347;SDS011;5220;43.192;23.284;2023-08-24T09:50:03;8.52;;;7.82;;
10347;SDS011;5220;43.192;23.284;2023-08-24T09:52:31;9.80;;;8.52;;
10347;SDS011;5220;43.192;23.284;2023-08-24T09:55:00;10.98;;;8.20;;
10347;SDS011;5220;43.192;23.284;2023-08-24T09:57:31;8.73;;;7.90;;
10347;SDS011;5220;43.192;23.284;2023-08-24T09:59:59;9.52;;;8.15;;
10347;SDS011;5220;43.192;23.284;2023-08-24T10:02:36;9.10;;;8.18;;
10347;SDS011;5220;43.192;23.284;2023-08-24T10:05:03;8.82;;;8.13;;
10347;SDS011;5220;43.192;23.284;2023-08-24T10:07:33;9.25;;;8.45;;
10347;SDS011;5220;43.192;23.284;2023-08-24T10:10:03;9.68;;;8.77;;
10347;SDS011;5220;43.192;23.284;2023-08-24T10:12:36;9.73;;;8.15;;
10347;SDS011;5220;43.192;23.284;2023-08-24T10:15:08;8.85;;;8.02;;
10347;SDS011;5220;43.192;23.284;2023-08-24T10:17:38;8.85;;;8.05;;
10347;SDS011;5220;43.192;23.284;2023-08-24T10:20:07;10.07;;;8.80;;
10347;SDS011;5220;43.192;23.284;2023-08-24T10:22:36;9.00;;;8.23;;
10347;SDS011;5220;43.192;23.284;2023-08-24T10:25:05;9.20;;;8.32;;
10347;SDS011;5220;43.192;23.284;2023-08-24T10:27:34;9.32;;;8.38;;
10347;SDS011;5220;43.192;23.284;2023-08-24T10:30:01;9.05;;;8.35;;
10347;SDS011;5220;43.192;23.284;2023-08-24T10:32:27;11.05;;;8.63;;
10347;SDS011;5220;43.192;23.284;2023-08-24T10:34:56;9.27;;;8.48;;
10347;SDS011;5220;43.192;23.284;2023-08-24T10:37:26;9.73;;;8.23;;
10347;SDS011;5220;43.192;23.284;2023-08-24T10:39:54;14.25;;;8.40;;
10347;SDS011;5220;43.192;23.284;2023-08-24T10:42:21;9.32;;;8.32;;
10347;SDS011;5220;43.192;23.284;2023-08-24T10:44:48;9.10;;;8.20;;
10347;SDS011;5220;43.192;23.284;2023-08-24T10:47:16;7.78;;;7.05;;
10347;SDS011;5220;43.192;23.284;2023-08-24T10:49:58;12.07;;;7.85;;
10347;SDS011;5220;43.192;23.284;2023-08-24T10:52:30;7.93;;;7.25;;
10347;SDS011;5220;43.192;23.284;2023-08-24T10:55:00;7.95;;;7.35;;
10347;SDS011;5220;43.192;23.284;2023-08-24T10:57:34;10.38;;;7.85;;
10347;SDS011;5220;43.192;23.284;2023-08-24T11:00:06;8.18;;;7.30;;
10347;SDS011;5220;43.192;23.284;2023-08-24T11:02:41;8.88;;;7.40;;
10347;SDS011;5220;43.192;23.284;2023-08-24T11:05:17;11.93;;;7.20;;
10347;SDS011;5220;43.192;23.284;2023-08-24T11:07:48;8.15;;;7.22;;
10347;SDS011;5220;43.192;23.284;2023-08-24T11:10:19;10.95;;;7.43;;
10347;SDS011;5220;43.192;23.284;2023-08-24T11:15:33;13.27;;;8.25;;
10347;SDS011;5220;43.192;23.284;2023-08-24T11:20:56;8.85;;;7.95;;
10347;SDS011;5220;43.192;23.284;2023-08-24T11:23:27;12.55;;;7.65;;
10347;SDS011;5220;43.192;23.284;2023-08-24T11:25:55;9.77;;;7.25;;
10347;SDS011;5220;43.192;23.284;2023-08-24T11:28:24;18.15;;;8.15;;
10347;SDS011;5220;43.192;23.284;2023-08-24T11:30:52;17.38;;;8.40;;
10347;SDS011;5220;43.192;23.284;2023-08-24T11:33:26;10.40;;;7.53;;
10347;SDS011;5220;43.192;23.284;2023-08-24T11:35:56;10.77;;;7.75;;
10347;SDS011;5220;43.192;23.284;2023-08-24T11:38:23;9.07;;;7.95;;
10347;SDS011;5220;43.192;23.284;2023-08-24T11:40:50;9.68;;;7.50;;
10347;SDS011;5220;43.192;23.284;2023-08-24T11:43:21;10.00;;;7.35;;
10347;SDS011;5220;43.192;23.284;2023-08-24T11:45:50;10.13;;;7.38;;
10347;SDS011;5220;43.192;23.284;2023-08-24T11:48:17;9.30;;;7.57;;
10347;SDS011;5220;43.192;23.284;2023-08-24T11:50:43;14.00;;;11.10;;
10347;SDS011;5220;43.192;23.284;2023-08-24T11:53:12;8.55;;;7.72;;
10347;SDS011;5220;43.192;23.284;2023-08-24T11:55:39;8.38;;;7.57;;
10347;SDS011;5220;43.192;23.284;2023-08-24T11:58:13;11.45;;;8.02;;
10347;SDS011;5220;43.192;23.284;2023-08-24T12:00:40;13.32;;;8.15;;
10347;SDS011;5220;43.192;23.284;2023-08-24T12:03:07;12.25;;;7.07;;
10347;SDS011;5220;43.192;23.284;2023-08-24T12:05:34;10.80;;;7.60;;
10347;SDS011;5220;43.192;23.284;2023-08-24T12:08:02;8.43;;;7.68;;
10347;SDS011;5220;43.192;23.284;2023-08-24T12:10:30;8.60;;;7.70;;
10347;SDS011;5220;43.192;23.284;2023-08-24T12:13:00;10.82;;;7.65;;
10347;SDS011;5220;43.192;23.284;2023-08-24T12:15:29;11.88;;;8.48;;
10347;SDS011;5220;43.192;23.284;2023-08-24T12:17:56;8.73;;;7.93;;
10347;SDS011;5220;43.192;23.284;2023-08-24T12:20:22;12.77;;;7.95;;
10347;SDS011;5220;43.192;23.284;2023-08-24T12:22:52;10.23;;;9.27;;
10347;SDS011;5220;43.192;23.284;2023-08-24T12:25:23;9.60;;;8.55;;
10347;SDS011;5220;43.192;23.284;2023-08-24T12:27:51;10.23;;;8.00;;
10347;SDS011;5220;43.192;23.284;2023-08-24T12:30:19;10.98;;;8.02;;
10347;SDS011;5220;43.192;23.284;2023-08-24T12:32:46;10.30;;;8.43;;
10347;SDS011;5220;43.192;23.284;2023-08-24T12:35:16;8.40;;;7.70;;
10347;SDS011;5220;43.192;23.284;2023-08-24T12:37:42;10.90;;;7.78;;
10347;SDS011;5220;43.192;23.284;2023-08-24T12:40:10;8.40;;;7.60;;
10347;SDS011;5220;43.192;23.284;2023-08-24T12:42:37;10.98;;;9.77;;
10347;SDS011;5220;43.192;23.284;2023-08-24T12:45:06;17.95;;;13.48;;
10347;SDS011;5220;43.192;23.284;2023-08-24T12:47:33;10.25;;;8.20;;
10347;SDS011;5220;43.192;23.284;2023-08-24T12:50:04;8.55;;;7.72;;
10347;SDS011;5220;43.192;23.284;2023-08-24T12:52:32;8.15;;;7.38;;
10347;SDS011;5220;43.192;23.284;2023-08-24T12:54:59;9.55;;;7.40;;
10347;SDS011;5220;43.192;23.284;2023-08-24T12:57:26;13.35;;;10.75;;
10347;SDS011;5220;43.192;23.284;2023-08-24T12:59:52;9.02;;;7.88;;
10347;SDS011;5220;43.192;23.284;2023-08-24T13:02:21;8.15;;;7.22;;
10347;SDS011;5220;43.192;23.284;2023-08-24T13:04:47;10.38;;;6.97;;
10347;SDS011;5220;43.192;23.284;2023-08-24T13:07:14;7.75;;;7.10;;
10347;SDS011;5220;43.192;23.284;2023-08-24T13:09:41;11.10;;;10.05;;
10347;SDS011;5220;43.192;23.284;2023-08-24T13:12:07;10.27;;;9.35;;
10347;SDS011;5220;43.192;23.284;2023-08-24T13:14:34;8.32;;;7.30;;
10347;SDS011;5220;43.192;23.284;2023-08-24T13:17:01;9.02;;;8.13;;
10347;SDS011;5220;43.192;23.284;2023-08-24T13:19:29;6.30;;;5.75;;
10347;SDS011;5220;43.192;23.284;2023-08-24T13:21:56;6.25;;;5.65;;
10347;SDS011;5220;43.192;23.284;2023-08-24T13:24:22;6.05;;;5.45;;
10347;SDS011;5220;43.192;23.284;2023-08-24T13:26:49;5.70;;;5.20;;
10347;SDS011;5220;43.192;23.284;2023-08-24T13:29:16;9.50;;;8.32;;
10347;SDS011;5220;43.192;23.284;2023-08-24T13:31:42;8.80;;;7.90;;
10347;SDS011;5220;43.192;23.284;2023-08-24T13:34:09;8.27;;;7.47;;
10347;SDS011;5220;43.192;23.284;2023-08-24T13:36:37;8.05;;;7.35;;
10347;SDS011;5220;43.192;23.284;2023-08-24T13:39:04;7.30;;;6.60;;
10347;SDS011;5220;43.192;23.284;2023-08-24T13:41:31;7.80;;;7.20;;
10347;SDS011;5220;43.192;23.284;2023-08-24T13:43:57;8.32;;;7.30;;
10347;SDS011;5220;43.192;23.284;2023-08-24T13:46:24;7.50;;;6.80;;
10347;SDS011;5220;43.192;23.284;2023-08-24T13:48:51;8.85;;;7.22;;
10347;SDS011;5220;43.192;23.284;2023-08-24T13:51:17;12.18;;;6.72;;
10347;SDS011;5220;43.192;23.284;2023-08-24T13:53:45;9.60;;;6.40;;
10347;SDS011;5220;43.192;23.284;2023-08-24T13:56:13;7.88;;;5.60;;
10347;SDS011;5220;43.192;23.284;2023-08-24T13:58:40;6.65;;;6.00;;
10347;SDS011;5220;43.192;23.284;2023-08-24T14:01:07;6.00;;;5.60;;
10347;SDS011;5220;43.192;23.284;2023-08-24T14:03:35;9.95;;;5.70;;
10347;SDS011;5220;43.192;23.284;2023-08-24T14:06:03;7.20;;;5.65;;
10347;SDS011;5220;43.192;23.284;2023-08-24T14:08:30;8.23;;;6.85;;
10347;SDS011;5220;43.192;23.284;2023-08-24T14:10:58;7.50;;;6.80;;
10347;SDS011;5220;43.192;23.284;2023-08-24T14:13:25;7.53;;;5.40;;
10347;SDS011;5220;43.192;23.284;2023-08-24T14:15:52;14.75;;;6.82;;
10347;SDS011;5220;43.192;23.284;2023-08-24T14:18:18;23.40;;;21.20;;
10347;SDS011;5220;43.192;23.284;2023-08-24T14:20:45;9.20;;;7.75;;
10347;SDS011;5220;43.192;23.284;2023-08-24T14:23:12;8.63;;;7.03;;
10347;SDS011;5220;43.192;23.284;2023-08-24T14:25:39;7.10;;;6.50;;
10347;SDS011;5220;43.192;23.284;2023-08-24T14:28:07;7.43;;;6.63;;
10347;SDS011;5220;43.192;23.284;2023-08-24T14:30:33;7.47;;;6.78;;
10347;SDS011;5220;43.192;23.284;2023-08-24T14:33:00;7.97;;;7.22;;
10347;SDS011;5220;43.192;23.284;2023-08-24T14:35:27;9.30;;;8.18;;
10347;SDS011;5220;43.192;23.284;2023-08-24T14:37:53;12.73;;;7.22;;
10347;SDS011;5220;43.192;23.284;2023-08-24T14:40:20;8.65;;;7.75;;